sensor_id;sensor_type;location;lat;lon;timestamp;P1;durP1;ratioP1;P2;durP2;ratioP2
23670;SDS011;12012;51.998;7.614;2023-02-28T00:00:25;9.02;;;5.20;;
23670;SDS011;12012;51.998;7.614;2023-02-28T00:02:51;8.48;;;5.38;;
23670;SDS011;12012;51.998;7.614;2023-02-28T00:05:17;11.40;;;7.00;;
23670;SDS011;12012;51.998;7.614;2023-02-28T00:07:44;9.75;;;6.53;;
23670;SDS011;12012;51.998;7.614;2023-02-28T00:10:12;10.57;;;5.70;;
23670;SDS011;12012;51.998;7.614;2023-02-28T00:12:39;9.75;;;6.25;;
23670;SDS011;12012;51.998;7.614;2023-02-28T00:15:07;12.35;;;7.05;;
23670;SDS011;12012;51.998;7.614;2023-02-28T00:17:34;13.93;;;7.68;;
23670;SDS011;12012;51.998;7.614;2023-02-28T00:20:00;13.55;;;8.00;;
23670;SDS011;12012;51.998;7.614;2023-02-28T00:22:36;14.98;;;7.22;;
23670;SDS011;12012;51.998;7.614;2023-02-28T00:25:03;12.30;;;6.65;;
23670;SDS011;12012;51.998;7.614;2023-02-28T00:27:29;12.23;;;7.32;;
23670;SDS011;12012;51.998;7.614;2023-02-28T00:29:55;13.73;;;8.55;;
23670;SDS011;12012;51.998;7.614;2023-02-28T00:32:21;13.00;;;7.90;;
23670;SDS011;12012;51.998;7.614;2023-02-28T00:34:46;13.82;;;7.95;;
23670;SDS011;12012;51.998;7.614;2023-02-28T00:37:12;16.52;;;8.80;;
23670;SDS011;12012;51.998;7.614;2023-02-28T00:39:38;17.25;;;9.23;;
23670;SDS011;12012;51.998;7.614;2023-02-28T00:42:04;18.98;;;8.82;;
23670;SDS011;12012;51.998;7.614;2023-02-28T00:44:31;16.48;;;8.00;;
23670;SDS011;12012;51.998;7.614;2023-02-28T00:46:57;14.13;;;8.23;;
23670;SDS011;12012;51.998;7.614;2023-02-28T00:49:24;12.57;;;7.68;;
23670;SDS011;12012;51.998;7.614;2023-02-28T00:51:50;16.40;;;8.55;;
23670;SDS011;12012;51.998;7.614;2023-02-28T00:54:17;13.43;;;8.05;;
23670;SDS011;12012;51.998;7.614;2023-02-28T00:56:42;14.82;;;7.85;;
23670;SDS011;12012;51.998;7.614;2023-02-28T00:59:08;14.15;;;7.82;;
23670;SDS011;12012;51.998;7.614;2023-02-28T01:01:34;17.48;;;8.32;;
23670;SDS011;12012;51.998;7.614;2023-02-28T01:04:00;13.32;;;7.70;;
23670;SDS011;12012;51.998;7.614;2023-02-28T01:06:25;14.23;;;7.88;;
23670;SDS011;12012;51.998;7.614;2023-02-28T01:08:51;14.88;;;7.57;;
23670;SDS011;12012;51.998;7.614;2023-02-28T01:11:17;13.95;;;7.93;;
23670;SDS011;12012;51.998;7.614;2023-02-28T01:13:43;18.05;;;8.93;;
23670;SDS011;12012;51.998;7.614;2023-02-28T01:16:10;16.27;;;7.97;;
23670;SDS011;12012;51.998;7.614;2023-02-28T01:18:36;14.48;;;8.15;;
23670;SDS011;12012;51.998;7.614;2023-02-28T01:21:05;11.02;;;7.97;;
23670;SDS011;12012;51.998;7.614;2023-02-28T01:23:32;11.07;;;6.90;;
23670;SDS011;12012;51.998;7.614;2023-02-28T01:26:03;10.77;;;7.80;;
23670;SDS011;12012;51.998;7.614;2023-02-28T01:28:32;13.65;;;7.10;;
23670;SDS011;12012;51.998;7.614;2023-02-28T01:30:58;13.40;;;7.80;;
23670;SDS011;12012;51.998;7.614;2023-02-28T01:33:24;16.20;;;8.65;;
23670;SDS011;12012;51.998;7.614;2023-02-28T01:35:56;13.27;;;8.02;;
23670;SDS011;12012;51.998;7.614;2023-02-28T01:38:26;12.07;;;7.35;;
23670;SDS011;12012;51.998;7.614;2023-02-28T01:40:52;11.93;;;7.40;;
23670;SDS011;12012;51.998;7.614;2023-02-28T01:45:52;12.38;;;7.72;;
23670;SDS011;12012;51.998;7.614;2023-02-28T01:48:19;15.45;;;8.43;;
23670;SDS011;12012;51.998;7.614;2023-02-28T01:50:51;14.07;;;8.52;;
23670;SDS011;12012;51.998;7.614;2023-02-28T01:53:18;12.63;;;8.18;;
23670;SDS011;12012;51.998;7.614;2023-02-28T01:55:48;13.30;;;8.55;;
23670;SDS011;12012;51.998;7.614;2023-02-28T01:58:16;14.07;;;7.90;;
23670;SDS011;12012;51.998;7.614;2023-02-28T02:00:41;16.13;;;8.18;;
23670;SDS011;12012;51.998;7.614;2023-02-28T02:03:11;14.55;;;7.70;;
23670;SDS011;12012;51.998;7.614;2023-02-28T02:08:06;16.17;;;7.30;;
23670;SDS011;12012;51.998;7.614;2023-02-28T02:10:40;12.77;;;8.00;;
23670;SDS011;12012;51.998;7.614;2023-02-28T02:13:14;12.90;;;7.47;;
23670;SDS011;12012;51.998;7.614;2023-02-28T02:16:20;17.05;;;8.40;;
23670;SDS011;12012;51.998;7.614;2023-02-28T02:30:35;12.43;;;7.55;;
23670;SDS011;12012;51.998;7.614;2023-02-28T02:41:47;13.13;;;7.90;;
23670;SDS011;12012;51.998;7.614;2023-02-28T02:46:48;13.40;;;8.18;;
23670;SDS011;12012;51.998;7.614;2023-02-28T02:49:25;18.70;;;8.80;;
23670;SDS011;12012;51.998;7.614;2023-02-28T02:51:54;17.35;;;8.75;;
23670;SDS011;12012;51.998;7.614;2023-02-28T02:54:22;18.98;;;10.45;;
23670;SDS011;12012;51.998;7.614;2023-02-28T02:56:53;16.80;;;8.80;;
23670;SDS011;12012;51.998;7.614;2023-02-28T02:59:21;18.67;;;10.40;;
23670;SDS011;12012;51.998;7.614;2023-02-28T03:01:53;17.85;;;9.40;;
23670;SDS011;12012;51.998;7.614;2023-02-28T03:04:22;17.70;;;9.40;;
23670;SDS011;12012;51.998;7.614;2023-02-28T03:06:51;16.40;;;9.73;;
23670;SDS011;12012;51.998;7.614;2023-02-28T03:09:20;18.63;;;10.52;;
23670;SDS011;12012;51.998;7.614;2023-02-28T03:11:46;15.60;;;9.77;;
23670;SDS011;12012;51.998;7.614;2023-02-28T03:19:50;14.40;;;8.25;;
23670;SDS011;12012;51.998;7.614;2023-02-28T03:27:55;17.85;;;8.98;;
23670;SDS011;12012;51.998;7.614;2023-02-28T03:30:45;14.85;;;8.40;;
23670;SDS011;12012;51.998;7.614;2023-02-28T03:33:28;15.48;;;9.30;;
23670;SDS011;12012;51.998;7.614;2023-02-28T03:36:01;14.18;;;8.25;;
23670;SDS011;12012;51.998;7.614;2023-02-28T03:41:15;21.10;;;9.20;;
23670;SDS011;12012;51.998;7.614;2023-02-28T03:43:49;17.30;;;8.40;;
23670;SDS011;12012;51.998;7.614;2023-02-28T03:48:49;18.35;;;10.35;;
23670;SDS011;12012;51.998;7.614;2023-02-28T03:51:21;21.90;;;9.27;;
23670;SDS011;12012;51.998;7.614;2023-02-28T03:53:59;21.15;;;10.73;;
23670;SDS011;12012;51.998;7.614;2023-02-28T03:59:07;17.63;;;9.13;;
23670;SDS011;12012;51.998;7.614;2023-02-28T04:01:47;16.50;;;10.20;;
23670;SDS011;12012;51.998;7.614;2023-02-28T04:04:13;18.73;;;9.95;;
23670;SDS011;12012;51.998;7.614;2023-02-28T04:06:40;15.48;;;9.20;;
23670;SDS011;12012;51.998;7.614;2023-02-28T04:09:08;18.77;;;9.35;;
23670;SDS011;12012;51.998;7.614;2023-02-28T04:11:40;17.02;;;9.75;;
23670;SDS011;12012;51.998;7.614;2023-02-28T04:14:06;15.63;;;9.98;;
23670;SDS011;12012;51.998;7.614;2023-02-28T04:16:33;16.13;;;9.35;;
23670;SDS011;12012;51.998;7.614;2023-02-28T04:19:00;15.57;;;8.48;;
23670;SDS011;12012;51.998;7.614;2023-02-28T04:21:28;12.80;;;8.43;;
23670;SDS011;12012;51.998;7.614;2023-02-28T04:23:54;12.50;;;8.38;;
23670;SDS011;12012;51.998;7.614;2023-02-28T04:26:20;15.05;;;9.02;;
23670;SDS011;12012;51.998;7.614;2023-02-28T04:28:46;13.05;;;7.85;;
23670;SDS011;12012;51.998;7.614;2023-02-28T04:31:11;16.30;;;8.90;;
23670;SDS011;12012;51.998;7.614;2023-02-28T04:33:37;12.88;;;8.73;;
23670;SDS011;12012;51.998;7.614;2023-02-28T04:36:03;16.90;;;9.80;;
23670;SDS011;12012;51.998;7.614;2023-02-28T04:38:32;15.77;;;9.73;;
23670;SDS011;12012;51.998;7.614;2023-02-28T04:40:59;15.82;;;8.32;;
23670;SDS011;12012;51.998;7.614;2023-02-28T04:43:28;19.17;;;9.90;;
23670;SDS011;12012;51.998;7.614;2023-02-28T04:45:55;16.45;;;8.82;;
23670;SDS011;12012;51.998;7.614;2023-02-28T04:48:21;18.85;;;9.63;;
23670;SDS011;12012;51.998;7.614;2023-02-28T04:50:51;16.15;;;9.02;;
23670;SDS011;12012;51.998;7.614;2023-02-28T04:53:17;15.40;;;8.45;;
23670;SDS011;12012;51.998;7.614;2023-02-28T04:55:43;20.42;;;10.63;;
23670;SDS011;12012;51.998;7.614;2023-02-28T04:58:09;19.05;;;9.10;;
23670;SDS011;12012;51.998;7.614;2023-02-28T05:00:34;15.20;;;8.55;;
23670;SDS011;12012;51.998;7.614;2023-02-28T05:03:00;22.80;;;11.07;;
23670;SDS011;12012;51.998;7.614;2023-02-28T05:05:26;15.98;;;8.80;;
23670;SDS011;12012;51.998;7.614;2023-02-28T05:07:51;19.98;;;10.93;;
23670;SDS011;12012;51.998;7.614;2023-02-28T05:10:18;14.90;;;8.63;;
23670;SDS011;12012;51.998;7.614;2023-02-28T05:12:44;18.88;;;9.43;;
23670;SDS011;12012;51.998;7.614;2023-02-28T05:15:12;27.40;;;11.15;;
23670;SDS011;12012;51.998;7.614;2023-02-28T05:17:39;19.20;;;10.20;;
23670;SDS011;12012;51.998;7.614;2023-02-28T05:20:05;17.20;;;8.93;;
23670;SDS011;12012;51.998;7.614;2023-02-28T05:22:31;16.40;;;7.93;;
23670;SDS011;12012;51.998;7.614;2023-02-28T05:24:57;17.45;;;9.55;;
23670;SDS011;12012;51.998;7.614;2023-02-28T05:27:22;17.05;;;9.68;;
23670;SDS011;12012;51.998;7.614;2023-02-28T05:29:48;15.75;;;9.38;;
23670;SDS011;12012;51.998;7.614;2023-02-28T05:32:14;19.13;;;10.80;;
23670;SDS011;12012;51.998;7.614;2023-02-28T05:34:40;28.58;;;11.80;;
23670;SDS011;12012;51.998;7.614;2023-02-28T05:37:06;17.13;;;9.13;;
23670;SDS011;12012;51.998;7.614;2023-02-28T05:39:37;21.23;;;11.30;;
23670;SDS011;12012;51.998;7.614;2023-02-28T05:42:03;20.35;;;11.50;;
23670;SDS011;12012;51.998;7.614;2023-02-28T05:44:29;20.77;;;11.05;;
23670;SDS011;12012;51.998;7.614;2023-02-28T05:46:55;14.02;;;10.48;;
23670;SDS011;12012;51.998;7.614;2023-02-28T05:49:20;20.63;;;9.77;;
23670;SDS011;12012;51.998;7.614;2023-02-28T05:51:46;23.73;;;11.60;;
23670;SDS011;12012;51.998;7.614;2023-02-28T05:54:12;18.98;;;11.50;;
23670;SDS011;12012;51.998;7.614;2023-02-28T05:56:38;21.05;;;11.30;;
23670;SDS011;12012;51.998;7.614;2023-02-28T05:59:10;19.98;;;10.50;;
23670;SDS011;12012;51.998;7.614;2023-02-28T06:01:38;18.42;;;10.57;;
23670;SDS011;12012;51.998;7.614;2023-02-28T06:04:06;20.00;;;12.70;;
23670;SDS011;12012;51.998;7.614;2023-02-28T06:06:34;19.23;;;10.95;;
23670;SDS011;12012;51.998;7.614;2023-02-28T06:09:00;18.25;;;11.13;;
23670;SDS011;12012;51.998;7.614;2023-02-28T06:11:26;17.95;;;10.57;;
23670;SDS011;12012;51.998;7.614;2023-02-28T06:13:53;18.17;;;10.82;;
23670;SDS011;12012;51.998;7.614;2023-02-28T06:16:20;18.23;;;10.52;;
23670;SDS011;12012;51.998;7.614;2023-02-28T06:18:46;19.98;;;10.25;;
23670;SDS011;12012;51.998;7.614;2023-02-28T06:21:12;16.08;;;10.15;;
23670;SDS011;12012;51.998;7.614;2023-02-28T06:23:37;14.52;;;8.73;;
23670;SDS011;12012;51.998;7.614;2023-02-28T06:26:03;18.95;;;10.02;;
23670;SDS011;12012;51.998;7.614;2023-02-28T06:28:29;19.98;;;10.93;;
23670;SDS011;12012;51.998;7.614;2023-02-28T06:30:54;19.73;;;10.00;;
23670;SDS011;12012;51.998;7.614;2023-02-28T06:33:20;17.13;;;10.00;;
23670;SDS011;12012;51.998;7.614;2023-02-28T06:35:47;18.48;;;10.40;;
23670;SDS011;12012;51.998;7.614;2023-02-28T06:38:15;16.42;;;9.50;;
23670;SDS011;12012;51.998;7.614;2023-02-28T06:40:41;15.15;;;9.73;;
23670;SDS011;12012;51.998;7.614;2023-02-28T06:43:06;18.13;;;10.45;;
23670;SDS011;12012;51.998;7.614;2023-02-28T06:45:32;19.95;;;10.30;;
23670;SDS011;12012;51.998;7.614;2023-02-28T06:47:58;19.17;;;9.85;;
23670;SDS011;12012;51.998;7.614;2023-02-28T06:50:25;15.57;;;10.18;;
23670;SDS011;12012;51.998;7.614;2023-02-28T06:52:52;21.80;;;11.30;;
23670;SDS011;12012;51.998;7.614;2023-02-28T06:55:19;21.52;;;11.10;;
23670;SDS011;12012;51.998;7.614;2023-02-28T06:57:44;15.52;;;10.25;;
23670;SDS011;12012;51.998;7.614;2023-02-28T07:00:10;19.70;;;10.10;;
23670;SDS011;12012;51.998;7.614;2023-02-28T07:02:36;17.55;;;10.48;;
23670;SDS011;12012;51.998;7.614;2023-02-28T07:05:03;13.20;;;8.25;;
23670;SDS011;12012;51.998;7.614;2023-02-28T07:07:29;12.63;;;9.13;;
23670;SDS011;12012;51.998;7.614;2023-02-28T07:09:55;16.63;;;9.77;;
23670;SDS011;12012;51.998;7.614;2023-02-28T07:12:21;18.38;;;10.55;;
23670;SDS011;12012;51.998;7.614;2023-02-28T07:14:47;18.60;;;10.43;;
23670;SDS011;12012;51.998;7.614;2023-02-28T07:17:12;15.45;;;8.45;;
23670;SDS011;12012;51.998;7.614;2023-02-28T07:19:38;17.73;;;10.30;;
23670;SDS011;12012;51.998;7.614;2023-02-28T07:22:04;18.85;;;9.98;;
23670;SDS011;12012;51.998;7.614;2023-02-28T07:24:31;13.32;;;9.35;;
23670;SDS011;12012;51.998;7.614;2023-02-28T07:26:56;17.40;;;10.05;;
23670;SDS011;12012;51.998;7.614;2023-02-28T07:29:22;17.25;;;10.05;;
23670;SDS011;12012;51.998;7.614;2023-02-28T07:31:48;15.48;;;9.50;;
23670;SDS011;12012;51.998;7.614;2023-02-28T07:34:15;11.88;;;8.23;;
23670;SDS011;12012;51.998;7.614;2023-02-28T07:36:41;12.20;;;8.13;;
23670;SDS011;12012;51.998;7.614;2023-02-28T07:39:06;12.85;;;8.43;;
23670;SDS011;12012;51.998;7.614;2023-02-28T07:41:34;19.13;;;9.73;;
23670;SDS011;12012;51.998;7.614;2023-02-28T07:44:02;14.70;;;8.48;;
23670;SDS011;12012;51.998;7.614;2023-02-28T07:46:28;15.57;;;8.95;;
23670;SDS011;12012;51.998;7.614;2023-02-28T07:51:27;13.25;;;8.07;;
23670;SDS011;12012;51.998;7.614;2023-02-28T07:53:53;13.85;;;8.00;;
23670;SDS011;12012;51.998;7.614;2023-02-28T07:56:19;17.83;;;8.90;;
23670;SDS011;12012;51.998;7.614;2023-02-28T07:58:44;14.35;;;7.85;;
23670;SDS011;12012;51.998;7.614;2023-02-28T08:01:10;10.23;;;6.85;;
23670;SDS011;12012;51.998;7.614;2023-02-28T08:03:37;13.80;;;7.70;;
23670;SDS011;12012;51.998;7.614;2023-02-28T08:06:04;11.45;;;6.43;;
23670;SDS011;12012;51.998;7.614;2023-02-28T08:08:30;9.70;;;6.82;;
23670;SDS011;12012;51.998;7.614;2023-02-28T08:10:59;11.10;;;7.03;;
23670;SDS011;12012;51.998;7.614;2023-02-28T08:13:27;11.70;;;6.80;;
23670;SDS011;12012;51.998;7.614;2023-02-28T08:15:53;9.63;;;6.70;;
23670;SDS011;12012;51.998;7.614;2023-02-28T08:18:19;13.50;;;6.75;;
23670;SDS011;12012;51.998;7.614;2023-02-28T08:20:46;10.82;;;7.10;;
23670;SDS011;12012;51.998;7.614;2023-02-28T08:23:11;10.50;;;7.00;;
23670;SDS011;12012;51.998;7.614;2023-02-28T08:25:37;11.32;;;6.07;;
23670;SDS011;12012;51.998;7.614;2023-02-28T08:28:02;10.32;;;5.93;;
23670;SDS011;12012;51.998;7.614;2023-02-28T08:30:28;9.13;;;6.20;;
23670;SDS011;12012;51.998;7.614;2023-02-28T08:32:54;9.77;;;5.82;;
23670;SDS011;12012;51.998;7.614;2023-02-28T08:35:20;10.88;;;5.95;;
23670;SDS011;12012;51.998;7.614;2023-02-28T08:37:49;10.18;;;6.50;;
23670;SDS011;12012;51.998;7.614;2023-02-28T08:40:15;12.70;;;7.10;;
23670;SDS011;12012;51.998;7.614;2023-02-28T08:42:46;15.75;;;7.75;;
23670;SDS011;12012;51.998;7.614;2023-02-28T08:45:12;18.73;;;8.38;;
23670;SDS011;12012;51.998;7.614;2023-02-28T08:47:39;15.98;;;8.10;;
23670;SDS011;12012;51.998;7.614;2023-02-28T08:50:05;15.30;;;7.50;;
23670;SDS011;12012;51.998;7.614;2023-02-28T08:52:31;19.15;;;8.60;;
23670;SDS011;12012;51.998;7.614;2023-02-28T08:54:56;29.58;;;11.32;;
23670;SDS011;12012;51.998;7.614;2023-02-28T08:57:22;37.25;;;14.15;;
23670;SDS011;12012;51.998;7.614;2023-02-28T08:59:47;45.05;;;17.40;;
23670;SDS011;12012;51.998;7.614;2023-02-28T09:02:13;35.40;;;12.70;;
23670;SDS011;12012;51.998;7.614;2023-02-28T09:04:39;48.55;;;17.23;;
23670;SDS011;12012;51.998;7.614;2023-02-28T09:07:05;23.60;;;10.30;;
23670;SDS011;12012;51.998;7.614;2023-02-28T09:09:31;15.88;;;6.95;;
23670;SDS011;12012;51.998;7.614;2023-02-28T09:11:57;16.42;;;6.88;;
23670;SDS011;12012;51.998;7.614;2023-02-28T09:14:23;50.88;;;19.15;;
23670;SDS011;12012;51.998;7.614;2023-02-28T09:16:48;104.05;;;31.48;;
23670;SDS011;12012;51.998;7.614;2023-02-28T09:19:14;97.47;;;31.80;;
23670;SDS011;12012;51.998;7.614;2023-02-28T09:21:39;98.78;;;28.30;;
23670;SDS011;12012;51.998;7.614;2023-02-28T09:24:05;58.33;;;17.30;;
23670;SDS011;12012;51.998;7.614;2023-02-28T09:26:31;38.30;;;12.30;;
23670;SDS011;12012;51.998;7.614;2023-02-28T09:28:57;31.15;;;9.95;;
23670;SDS011;12012;51.998;7.614;2023-02-28T09:31:26;32.35;;;10.80;;
23670;SDS011;12012;51.998;7.614;2023-02-28T09:33:54;9.70;;;4.00;;
23670;SDS011;12012;51.998;7.614;2023-02-28T09:36:22;12.32;;;3.92;;
23670;SDS011;12012;51.998;7.614;2023-02-28T09:38:49;7.70;;;3.10;;
23670;SDS011;12012;51.998;7.614;2023-02-28T09:41:21;5.40;;;2.83;;
23670;SDS011;12012;51.998;7.614;2023-02-28T09:43:58;5.03;;;2.45;;
23670;SDS011;12012;51.998;7.614;2023-02-28T09:46:34;4.78;;;2.53;;
23670;SDS011;12012;51.998;7.614;2023-02-28T09:49:10;3.25;;;1.98;;
23670;SDS011;12012;51.998;7.614;2023-02-28T09:54:15;3.55;;;1.90;;
23670;SDS011;12012;51.998;7.614;2023-02-28T09:56:43;3.10;;;1.67;;
23670;SDS011;12012;51.998;7.614;2023-02-28T10:02:04;2.58;;;1.55;;
23670;SDS011;12012;51.998;7.614;2023-02-28T10:10:04;4.53;;;1.35;;
23670;SDS011;12012;51.998;7.614;2023-02-28T10:12:52;3.38;;;1.42;;
23670;SDS011;12012;51.998;7.614;2023-02-28T10:15:21;1.95;;;1.42;;
23670;SDS011;12012;51.998;7.614;2023-02-28T10:17:53;1.95;;;1.50;;
23670;SDS011;12012;51.998;7.614;2023-02-28T10:20:22;1.70;;;1.30;;
23670;SDS011;12012;51.998;7.614;2023-02-28T10:23:07;3.05;;;1.45;;
23670;SDS011;12012;51.998;7.614;2023-02-28T10:25:35;2.78;;;1.40;;
23670;SDS011;12012;51.998;7.614;2023-02-28T10:28:11;2.53;;;1.25;;
23670;SDS011;12012;51.998;7.614;2023-02-28T10:30:40;4.43;;;1.65;;
23670;SDS011;12012;51.998;7.614;2023-02-28T10:33:20;2.78;;;1.58;;
23670;SDS011;12012;51.998;7.614;2023-02-28T10:35:49;2.50;;;1.38;;
23670;SDS011;12012;51.998;7.614;2023-02-28T10:38:16;2.60;;;1.50;;
23670;SDS011;12012;51.998;7.614;2023-02-28T10:40:44;2.65;;;1.50;;
23670;SDS011;12012;51.998;7.614;2023-02-28T10:45:38;2.15;;;1.67;;
23670;SDS011;12012;51.998;7.614;2023-02-28T10:48:05;2.08;;;1.35;;
23670;SDS011;12012;51.998;7.614;2023-02-28T10:50:52;2.55;;;1.60;;
23670;SDS011;12012;51.998;7.614;2023-02-28T10:58:22;1.33;;;1.23;;
23670;SDS011;12012;51.998;7.614;2023-02-28T11:00:49;1.77;;;1.50;;
23670;SDS011;12012;51.998;7.614;2023-02-28T11:05:50;1.80;;;1.30;;
23670;SDS011;12012;51.998;7.614;2023-02-28T11:08:16;2.03;;;1.60;;
23670;SDS011;12012;51.998;7.614;2023-02-28T11:10:46;1.92;;;1.48;;
23670;SDS011;12012;51.998;7.614;2023-02-28T11:13:17;2.45;;;1.70;;
23670;SDS011;12012;51.998;7.614;2023-02-28T11:15:49;1.98;;;1.70;;
23670;SDS011;12012;51.998;7.614;2023-02-28T11:18:31;2.67;;;1.40;;
23670;SDS011;12012;51.998;7.614;2023-02-28T11:21:04;2.08;;;1.40;;
23670;SDS011;12012;51.998;7.614;2023-02-28T11:23:30;3.28;;;1.75;;
23670;SDS011;12012;51.998;7.614;2023-02-28T11:26:00;1.85;;;1.40;;
23670;SDS011;12012;51.998;7.614;2023-02-28T11:28:34;1.30;;;1.15;;
23670;SDS011;12012;51.998;7.614;2023-02-28T11:33:44;1.65;;;1.42;;
23670;SDS011;12012;51.998;7.614;2023-02-28T11:36:19;1.65;;;1.38;;
23670;SDS011;12012;51.998;7.614;2023-02-28T11:38:49;2.42;;;1.30;;
23670;SDS011;12012;51.998;7.614;2023-02-28T11:44:05;1.85;;;1.30;;
23670;SDS011;12012;51.998;7.614;2023-02-28T11:52:20;1.83;;;1.27;;
23670;SDS011;12012;51.998;7.614;2023-02-28T11:55:09;2.28;;;1.17;;
23670;SDS011;12012;51.998;7.614;2023-02-28T11:57:51;1.55;;;1.40;;
23670;SDS011;12012;51.998;7.614;2023-02-28T12:16:34;2.55;;;1.40;;
23670;SDS011;12012;51.998;7.614;2023-02-28T12:19:26;1.77;;;1.20;;
23670;SDS011;12012;51.998;7.614;2023-02-28T12:27:50;2.47;;;1.60;;
23670;SDS011;12012;51.998;7.614;2023-02-28T12:30:28;3.83;;;2.35;;
23670;SDS011;12012;51.998;7.614;2023-02-28T12:33:07;6.97;;;2.60;;
23670;SDS011;12012;51.998;7.614;2023-02-28T12:35:48;2.25;;;1.80;;
23670;SDS011;12012;51.998;7.614;2023-02-28T12:38:24;2.42;;;1.92;;
23670;SDS011;12012;51.998;7.614;2023-02-28T12:41:12;2.63;;;1.73;;
23670;SDS011;12012;51.998;7.614;2023-02-28T12:44:08;2.13;;;1.85;;
23670;SDS011;12012;51.998;7.614;2023-02-28T12:46:54;2.08;;;1.88;;
23670;SDS011;12012;51.998;7.614;2023-02-28T12:52:06;2.28;;;1.80;;
23670;SDS011;12012;51.998;7.614;2023-02-28T13:00:14;3.78;;;2.00;;
23670;SDS011;12012;51.998;7.614;2023-02-28T13:08:00;2.67;;;1.55;;
23670;SDS011;12012;51.998;7.614;2023-02-28T13:10:44;2.65;;;1.65;;
23670;SDS011;12012;51.998;7.614;2023-02-28T13:13:13;2.05;;;1.65;;
23670;SDS011;12012;51.998;7.614;2023-02-28T13:15:41;1.92;;;1.73;;
23670;SDS011;12012;51.998;7.614;2023-02-28T13:18:28;2.13;;;1.60;;
23670;SDS011;12012;51.998;7.614;2023-02-28T13:20:54;2.25;;;1.52;;
23670;SDS011;12012;51.998;7.614;2023-02-28T13:23:37;1.98;;;1.70;;
23670;SDS011;12012;51.998;7.614;2023-02-28T13:26:12;2.90;;;1.77;;
23670;SDS011;12012;51.998;7.614;2023-02-28T13:31:26;1.95;;;1.70;;
23670;SDS011;12012;51.998;7.614;2023-02-28T13:36:31;2.10;;;1.48;;
23670;SDS011;12012;51.998;7.614;2023-02-28T13:38:58;2.20;;;1.90;;
23670;SDS011;12012;51.998;7.614;2023-02-28T13:47:22;2.45;;;1.67;;
23670;SDS011;12012;51.998;7.614;2023-02-28T13:49:52;2.65;;;1.67;;
23670;SDS011;12012;51.998;7.614;2023-02-28T13:52:20;1.80;;;1.50;;
23670;SDS011;12012;51.998;7.614;2023-02-28T14:05:47;2.83;;;1.80;;
23670;SDS011;12012;51.998;7.614;2023-02-28T14:11:40;2.38;;;1.80;;
23670;SDS011;12012;51.998;7.614;2023-02-28T14:14:08;2.88;;;1.67;;
23670;SDS011;12012;51.998;7.614;2023-02-28T14:16:39;3.78;;;1.67;;
23670;SDS011;12012;51.998;7.614;2023-02-28T14:19:15;1.90;;;1.73;;
23670;SDS011;12012;51.998;7.614;2023-02-28T14:24:59;4.35;;;1.92;;
23670;SDS011;12012;51.998;7.614;2023-02-28T14:36:23;1.98;;;1.70;;
23670;SDS011;12012;51.998;7.614;2023-02-28T14:41:33;3.63;;;2.28;;
23670;SDS011;12012;51.998;7.614;2023-02-28T14:44:02;2.50;;;2.05;;
23670;SDS011;12012;51.998;7.614;2023-02-28T14:46:43;3.55;;;2.40;;
23670;SDS011;12012;51.998;7.614;2023-02-28T14:49:16;4.20;;;2.30;;
23670;SDS011;12012;51.998;7.614;2023-02-28T14:52:01;2.47;;;2.27;;
23670;SDS011;12012;51.998;7.614;2023-02-28T14:54:30;3.28;;;2.50;;
23670;SDS011;12012;51.998;7.614;2023-02-28T14:56:56;2.92;;;2.40;;
23670;SDS011;12012;51.998;7.614;2023-02-28T14:59:26;5.10;;;2.42;;
23670;SDS011;12012;51.998;7.614;2023-02-28T15:02:18;3.63;;;2.28;;
23670;SDS011;12012;51.998;7.614;2023-02-28T15:04:55;3.17;;;2.55;;
23670;SDS011;12012;51.998;7.614;2023-02-28T15:07:25;5.22;;;2.58;;
23670;SDS011;12012;51.998;7.614;2023-02-28T15:10:07;2.85;;;2.58;;
23670;SDS011;12012;51.998;7.614;2023-02-28T15:12:39;3.70;;;2.33;;
23670;SDS011;12012;51.998;7.614;2023-02-28T15:15:06;2.85;;;2.30;;
23670;SDS011;12012;51.998;7.614;2023-02-28T15:17:44;2.90;;;2.47;;
23670;SDS011;12012;51.998;7.614;2023-02-28T15:20:14;3.10;;;2.60;;
23670;SDS011;12012;51.998;7.614;2023-02-28T15:22:41;5.22;;;2.22;;
23670;SDS011;12012;51.998;7.614;2023-02-28T15:25:09;3.72;;;2.60;;
23670;SDS011;12012;51.998;7.614;2023-02-28T15:27:40;3.97;;;2.40;;
23670;SDS011;12012;51.998;7.614;2023-02-28T15:30:14;3.78;;;2.67;;
23670;SDS011;12012;51.998;7.614;2023-02-28T15:33:01;4.35;;;2.72;;
23670;SDS011;12012;51.998;7.614;2023-02-28T15:35:31;4.00;;;2.33;;
23670;SDS011;12012;51.998;7.614;2023-02-28T15:38:00;3.83;;;2.58;;
23670;SDS011;12012;51.998;7.614;2023-02-28T15:40:41;3.40;;;2.30;;
23670;SDS011;12012;51.998;7.614;2023-02-28T15:45:58;3.35;;;2.53;;
23670;SDS011;12012;51.998;7.614;2023-02-28T15:48:28;3.38;;;2.47;;
23670;SDS011;12012;51.998;7.614;2023-02-28T15:50:57;4.40;;;2.60;;
23670;SDS011;12012;51.998;7.614;2023-02-28T15:53:35;4.57;;;3.13;;
23670;SDS011;12012;51.998;7.614;2023-02-28T15:56:20;3.50;;;3.08;;
23670;SDS011;12012;51.998;7.614;2023-02-28T15:59:15;5.97;;;3.58;;
23670;SDS011;12012;51.998;7.614;2023-02-28T16:02:02;3.70;;;2.78;;
23670;SDS011;12012;51.998;7.614;2023-02-28T16:07:36;3.42;;;2.80;;
23670;SDS011;12012;51.998;7.614;2023-02-28T16:10:04;3.88;;;2.70;;
23670;SDS011;12012;51.998;7.614;2023-02-28T16:12:31;4.60;;;2.95;;
23670;SDS011;12012;51.998;7.614;2023-02-28T16:15:00;4.05;;;2.35;;
23670;SDS011;12012;51.998;7.614;2023-02-28T16:17:33;3.65;;;2.42;;
23670;SDS011;12012;51.998;7.614;2023-02-28T16:20:01;4.68;;;2.80;;
23670;SDS011;12012;51.998;7.614;2023-02-28T16:22:30;4.40;;;2.88;;
23670;SDS011;12012;51.998;7.614;2023-02-28T16:24:56;4.03;;;2.80;;
23670;SDS011;12012;51.998;7.614;2023-02-28T16:27:26;3.67;;;2.90;;
23670;SDS011;12012;51.998;7.614;2023-02-28T16:29:56;4.78;;;2.60;;
23670;SDS011;12012;51.998;7.614;2023-02-28T16:32:21;4.70;;;2.92;;
23670;SDS011;12012;51.998;7.614;2023-02-28T16:34:47;4.55;;;2.70;;
23670;SDS011;12012;51.998;7.614;2023-02-28T16:37:14;4.93;;;2.55;;
23670;SDS011;12012;51.998;7.614;2023-02-28T16:39:42;6.03;;;3.38;;
23670;SDS011;12012;51.998;7.614;2023-02-28T16:42:14;4.93;;;3.20;;
23670;SDS011;12012;51.998;7.614;2023-02-28T16:44:52;4.85;;;3.58;;
23670;SDS011;12012;51.998;7.614;2023-02-28T16:47:18;3.75;;;2.90;;
23670;SDS011;12012;51.998;7.614;2023-02-28T16:49:44;5.38;;;3.63;;
23670;SDS011;12012;51.998;7.614;2023-02-28T16:52:10;4.88;;;3.20;;
23670;SDS011;12012;51.998;7.614;2023-02-28T16:54:36;5.22;;;3.08;;
23670;SDS011;12012;51.998;7.614;2023-02-28T16:57:03;5.50;;;3.42;;
23670;SDS011;12012;51.998;7.614;2023-02-28T16:59:29;4.53;;;3.47;;
23670;SDS011;12012;51.998;7.614;2023-02-28T17:01:55;5.53;;;3.95;;
23670;SDS011;12012;51.998;7.614;2023-02-28T17:04:23;6.05;;;2.90;;
23670;SDS011;12012;51.998;7.614;2023-02-28T17:06:51;4.65;;;3.60;;
23670;SDS011;12012;51.998;7.614;2023-02-28T17:09:18;6.38;;;3.80;;
23670;SDS011;12012;51.998;7.614;2023-02-28T17:11:45;7.82;;;4.13;;
23670;SDS011;12012;51.998;7.614;2023-02-28T17:14:11;5.30;;;3.60;;
23670;SDS011;12012;51.998;7.614;2023-02-28T17:16:37;5.45;;;4.05;;
23670;SDS011;12012;51.998;7.614;2023-02-28T17:19:05;6.60;;;3.75;;
23670;SDS011;12012;51.998;7.614;2023-02-28T17:21:36;7.17;;;3.87;;
23670;SDS011;12012;51.998;7.614;2023-02-28T17:24:01;8.40;;;4.53;;
23670;SDS011;12012;51.998;7.614;2023-02-28T17:26:27;8.75;;;4.57;;
23670;SDS011;12012;51.998;7.614;2023-02-28T17:28:54;6.72;;;4.00;;
23670;SDS011;12012;51.998;7.614;2023-02-28T17:31:21;8.95;;;4.47;;
23670;SDS011;12012;51.998;7.614;2023-02-28T17:33:47;7.38;;;4.50;;